sensor_id;sensor_type;location;lat;lon;timestamp;temperature;humidity
2539;DHT22;1280;49.760;9.664;2022-07-12T00:00:01;17.90;68.50
2539;DHT22;1280;49.760;9.664;2022-07-12T00:02:30;17.90;68.50
2539;DHT22;1280;49.760;9.664;2022-07-12T00:04:59;17.90;68.50
2539;DHT22;1280;49.760;9.664;2022-07-12T00:07:27;17.90;68.60
2539;DHT22;1280;49.760;9.664;2022-07-12T00:09:54;17.90;68.60
2539;DHT22;1280;49.760;9.664;2022-07-12T00:12:24;17.80;68.50
2539;DHT22;1280;49.760;9.664;2022-07-12T00:14:52;17.80;68.50
2539;DHT22;1280;49.760;9.664;2022-07-12T00:17:20;17.80;68.40
2539;DHT22;1280;49.760;9.664;2022-07-12T00:19:48;17.80;68.30
2539;DHT22;1280;49.760;9.664;2022-07-12T00:22:16;17.70;68.30
2539;DHT22;1280;49.760;9.664;2022-07-12T00:24:44;17.60;68.20
2539;DHT22;1280;49.760;9.664;2022-07-12T00:27:12;17.60;68.30
2539;DHT22;1280;49.760;9.664;2022-07-12T00:29:41;17.50;68.30
2539;DHT22;1280;49.760;9.664;2022-07-12T00:32:09;17.40;68.30
2539;DHT22;1280;49.760;9.664;2022-07-12T00:34:37;17.30;68.50
2539;DHT22;1280;49.760;9.664;2022-07-12T00:37:05;17.30;68.50
2539;DHT22;1280;49.760;9.664;2022-07-12T00:39:33;17.30;68.50
2539;DHT22;1280;49.760;9.664;2022-07-12T00:42:02;17.20;68.60
2539;DHT22;1280;49.760;9.664;2022-07-12T00:44:30;17.20;68.70
2539;DHT22;1280;49.760;9.664;2022-07-12T00:47:02;17.20;68.70
2539;DHT22;1280;49.760;9.664;2022-07-12T00:49:30;17.20;68.80
2539;DHT22;1280;49.760;9.664;2022-07-12T00:51:59;17.20;68.80
2539;DHT22;1280;49.760;9.664;2022-07-12T00:54:27;17.30;68.90
2539;DHT22;1280;49.760;9.664;2022-07-12T00:56:55;17.30;68.90
2539;DHT22;1280;49.760;9.664;2022-07-12T00:59:23;17.30;68.80
2539;DHT22;1280;49.760;9.664;2022-07-12T01:01:51;17.30;68.80
2539;DHT22;1280;49.760;9.664;2022-07-12T01:04:21;17.30;68.80
2539;DHT22;1280;49.760;9.664;2022-07-12T01:06:49;17.30;68.70
2539;DHT22;1280;49.760;9.664;2022-07-12T01:09:17;17.20;68.60
2539;DHT22;1280;49.760;9.664;2022-07-12T01:11:45;17.20;68.70
2539;DHT22;1280;49.760;9.664;2022-07-12T01:14:14;17.10;68.60
2539;DHT22;1280;49.760;9.664;2022-07-12T01:16:43;17.10;68.70
2539;DHT22;1280;49.760;9.664;2022-07-12T01:19:13;17.00;68.80
2539;DHT22;1280;49.760;9.664;2022-07-12T01:21:48;17.00;68.90
2539;DHT22;1280;49.760;9.664;2022-07-12T01:24:18;17.00;68.90
2539;DHT22;1280;49.760;9.664;2022-07-12T01:26:47;17.00;68.90
2539;DHT22;1280;49.760;9.664;2022-07-12T01:29:15;16.90;68.80
2539;DHT22;1280;49.760;9.664;2022-07-12T01:31:43;16.90;68.80
2539;DHT22;1280;49.760;9.664;2022-07-12T01:34:12;16.80;68.90
2539;DHT22;1280;49.760;9.664;2022-07-12T01:36:41;16.70;68.90
2539;DHT22;1280;49.760;9.664;2022-07-12T01:39:10;16.60;69.10
2539;DHT22;1280;49.760;9.664;2022-07-12T01:41:40;16.60;69.20
2539;DHT22;1280;49.760;9.664;2022-07-12T01:44:08;16.60;69.30
2539;DHT22;1280;49.760;9.664;2022-07-12T01:46:37;16.60;69.40
2539;DHT22;1280;49.760;9.664;2022-07-12T01:49:05;16.60;69.50
2539;DHT22;1280;49.760;9.664;2022-07-12T01:51:33;16.60;69.40
2539;DHT22;1280;49.760;9.664;2022-07-12T01:54:01;16.60;69.40
2539;DHT22;1280;49.760;9.664;2022-07-12T01:56:29;16.60;69.40
2539;DHT22;1280;49.760;9.664;2022-07-12T01:59:30;16.60;69.50
2539;DHT22;1280;49.760;9.664;2022-07-12T02:01:58;16.60;69.60
2539;DHT22;1280;49.760;9.664;2022-07-12T02:04:27;16.50;69.70
2539;DHT22;1280;49.760;9.664;2022-07-12T02:06:56;16.60;69.80
2539;DHT22;1280;49.760;9.664;2022-07-12T02:09:24;16.60;69.80
2539;DHT22;1280;49.760;9.664;2022-07-12T02:11:53;16.60;69.70
2539;DHT22;1280;49.760;9.664;2022-07-12T02:14:21;16.60;69.70
2539;DHT22;1280;49.760;9.664;2022-07-12T02:16:50;16.60;69.80
2539;DHT22;1280;49.760;9.664;2022-07-12T02:19:18;16.60;69.70
2539;DHT22;1280;49.760;9.664;2022-07-12T02:21:46;16.60;69.60
2539;DHT22;1280;49.760;9.664;2022-07-12T02:24:14;16.60;69.50
2539;DHT22;1280;49.760;9.664;2022-07-12T02:26:42;16.60;69.40
2539;DHT22;1280;49.760;9.664;2022-07-12T02:29:11;16.50;69.50
2539;DHT22;1280;49.760;9.664;2022-07-12T02:31:38;16.50;69.50
2539;DHT22;1280;49.760;9.664;2022-07-12T02:34:08;16.50;69.50
2539;DHT22;1280;49.760;9.664;2022-07-12T02:36:36;16.50;69.50
2539;DHT22;1280;49.760;9.664;2022-07-12T02:39:04;16.50;69.40
2539;DHT22;1280;49.760;9.664;2022-07-12T02:41:33;16.50;69.30
2539;DHT22;1280;49.760;9.664;2022-07-12T02:44:01;16.50;69.20
2539;DHT22;1280;49.760;9.664;2022-07-12T02:46:29;16.40;69.30
2539;DHT22;1280;49.760;9.664;2022-07-12T02:48:57;16.40;69.40
2539;DHT22;1280;49.760;9.664;2022-07-12T02:51:26;16.40;69.40
2539;DHT22;1280;49.760;9.664;2022-07-12T02:53:55;16.30;69.50
2539;DHT22;1280;49.760;9.664;2022-07-12T02:56:23;16.30;69.40
2539;DHT22;1280;49.760;9.664;2022-07-12T02:58:51;16.20;69.50
2539;DHT22;1280;49.760;9.664;2022-07-12T03:01:19;16.20;69.50
2539;DHT22;1280;49.760;9.664;2022-07-12T03:03:47;16.20;69.70
2539;DHT22;1280;49.760;9.664;2022-07-12T03:06:16;16.20;69.70
2539;DHT22;1280;49.760;9.664;2022-07-12T03:08:45;16.10;69.60
2539;DHT22;1280;49.760;9.664;2022-07-12T03:11:13;16.10;69.60
2539;DHT22;1280;49.760;9.664;2022-07-12T03:13:41;16.10;69.60
2539;DHT22;1280;49.760;9.664;2022-07-12T03:16:09;16.10;69.50
2539;DHT22;1280;49.760;9.664;2022-07-12T03:18:39;16.00;69.50
2539;DHT22;1280;49.760;9.664;2022-07-12T03:21:08;16.00;69.60
2539;DHT22;1280;49.760;9.664;2022-07-12T03:23:36;16.00;69.60
2539;DHT22;1280;49.760;9.664;2022-07-12T03:26:06;15.90;69.60
2539;DHT22;1280;49.760;9.664;2022-07-12T03:28:34;15.80;69.60
2539;DHT22;1280;49.760;9.664;2022-07-12T03:31:02;15.80;69.80
2539;DHT22;1280;49.760;9.664;2022-07-12T03:33:30;15.80;69.90
2539;DHT22;1280;49.760;9.664;2022-07-12T03:35:59;15.80;69.90
2539;DHT22;1280;49.760;9.664;2022-07-12T03:38:27;15.70;69.90
2539;DHT22;1280;49.760;9.664;2022-07-12T03:40:56;15.70;69.90
2539;DHT22;1280;49.760;9.664;2022-07-12T03:43:25;15.60;69.90
2539;DHT22;1280;49.760;9.664;2022-07-12T03:45:54;15.60;70.00
2539;DHT22;1280;49.760;9.664;2022-07-12T03:48:22;15.50;70.10
2539;DHT22;1280;49.760;9.664;2022-07-12T03:50:50;15.60;70.40
2539;DHT22;1280;49.760;9.664;2022-07-12T03:53:18;15.60;70.40
2539;DHT22;1280;49.760;9.664;2022-07-12T03:55:46;15.60;70.30
2539;DHT22;1280;49.760;9.664;2022-07-12T03:58:15;15.60;70.30
2539;DHT22;1280;49.760;9.664;2022-07-12T04:00:44;15.60;70.20
2539;DHT22;1280;49.760;9.664;2022-07-12T04:03:12;15.60;70.20
2539;DHT22;1280;49.760;9.664;2022-07-12T04:05:40;15.60;70.20
2539;DHT22;1280;49.760;9.664;2022-07-12T04:08:08;15.60;70.10
2539;DHT22;1280;49.760;9.664;2022-07-12T04:10:36;15.60;70.20
2539;DHT22;1280;49.760;9.664;2022-07-12T04:13:04;15.60;70.30
2539;DHT22;1280;49.760;9.664;2022-07-12T04:15:32;15.70;70.40
2539;DHT22;1280;49.760;9.664;2022-07-12T04:18:02;15.70;70.40
2539;DHT22;1280;49.760;9.664;2022-07-12T04:20:32;15.80;70.50
2539;DHT22;1280;49.760;9.664;2022-07-12T04:22:59;15.90;70.20
2539;DHT22;1280;49.760;9.664;2022-07-12T04:25:27;15.80;70.20
2539;DHT22;1280;49.760;9.664;2022-07-12T04:27:55;15.90;70.50
2539;DHT22;1280;49.760;9.664;2022-07-12T04:30:24;16.00;70.60
2539;DHT22;1280;49.760;9.664;2022-07-12T04:32:51;16.10;70.60
2539;DHT22;1280;49.760;9.664;2022-07-12T04:35:22;16.30;70.50
2539;DHT22;1280;49.760;9.664;2022-07-12T04:37:50;16.30;70.40
2539;DHT22;1280;49.760;9.664;2022-07-12T04:40:18;16.50;70.50
2539;DHT22;1280;49.760;9.664;2022-07-12T04:42:46;16.60;70.50
2539;DHT22;1280;49.760;9.664;2022-07-12T04:45:14;16.80;70.40
2539;DHT22;1280;49.760;9.664;2022-07-12T04:47:42;16.90;70.40
2539;DHT22;1280;49.760;9.664;2022-07-12T04:50:10;17.00;70.30
2539;DHT22;1280;49.760;9.664;2022-07-12T04:52:40;17.10;70.30
2539;DHT22;1280;49.760;9.664;2022-07-12T04:55:09;17.20;70.40
2539;DHT22;1280;49.760;9.664;2022-07-12T04:57:37;17.30;70.40
2539;DHT22;1280;49.760;9.664;2022-07-12T05:00:05;17.40;70.40
2539;DHT22;1280;49.760;9.664;2022-07-12T05:02:34;17.50;70.40
2539;DHT22;1280;49.760;9.664;2022-07-12T05:05:02;17.60;70.40
2539;DHT22;1280;49.760;9.664;2022-07-12T05:07:30;17.80;70.50
2539;DHT22;1280;49.760;9.664;2022-07-12T05:10:00;17.90;70.60
2539;DHT22;1280;49.760;9.664;2022-07-12T05:12:28;18.10;70.60
2539;DHT22;1280;49.760;9.664;2022-07-12T05:14:55;18.20;70.80
2539;DHT22;1280;49.760;9.664;2022-07-12T05:17:23;18.40;70.80
2539;DHT22;1280;49.760;9.664;2022-07-12T05:19:51;18.60;70.90
2539;DHT22;1280;49.760;9.664;2022-07-12T05:22:19;18.80;70.90
2539;DHT22;1280;49.760;9.664;2022-07-12T05:24:47;19.00;70.90
2539;DHT22;1280;49.760;9.664;2022-07-12T05:27:16;19.20;70.90
2539;DHT22;1280;49.760;9.664;2022-07-12T05:29:44;19.30;70.90
2539;DHT22;1280;49.760;9.664;2022-07-12T05:32:12;19.50;70.80
2539;DHT22;1280;49.760;9.664;2022-07-12T05:34:40;19.70;71.20
2539;DHT22;1280;49.760;9.664;2022-07-12T05:37:08;20.00;71.70
2539;DHT22;1280;49.760;9.664;2022-07-12T05:39:36;20.30;72.20
2539;DHT22;1280;49.760;9.664;2022-07-12T05:42:10;21.00;71.90
2539;DHT22;1280;49.760;9.664;2022-07-12T05:44:39;22.10;70.00
2539;DHT22;1280;49.760;9.664;2022-07-12T05:47:07;23.20;67.60
2539;DHT22;1280;49.760;9.664;2022-07-12T05:49:35;24.40;65.40
2539;DHT22;1280;49.760;9.664;2022-07-12T05:52:04;25.40;63.60
2539;DHT22;1280;49.760;9.664;2022-07-12T05:54:49;26.30;62.20
2539;DHT22;1280;49.760;9.664;2022-07-12T05:57:17;27.10;61.00
2539;DHT22;1280;49.760;9.664;2022-07-12T05:59:47;27.10;59.50
2539;DHT22;1280;49.760;9.664;2022-07-12T06:02:15;26.20;58.90
2539;DHT22;1280;49.760;9.664;2022-07-12T06:04:43;25.20;59.80
2539;DHT22;1280;49.760;9.664;2022-07-12T06:07:16;24.50;60.90
2539;DHT22;1280;49.760;9.664;2022-07-12T06:09:44;23.90;61.70
2539;DHT22;1280;49.760;9.664;2022-07-12T06:12:12;23.60;62.90
2539;DHT22;1280;49.760;9.664;2022-07-12T06:14:40;24.00;64.70
2539;DHT22;1280;49.760;9.664;2022-07-12T06:17:09;25.20;63.90
2539;DHT22;1280;49.760;9.664;2022-07-12T06:19:37;26.00;62.40
2539;DHT22;1280;49.760;9.664;2022-07-12T06:22:05;26.40;61.60
2539;DHT22;1280;49.760;9.664;2022-07-12T06:24:33;26.60;60.90
2539;DHT22;1280;49.760;9.664;2022-07-12T06:27:01;26.60;60.50
2539;DHT22;1280;49.760;9.664;2022-07-12T06:29:29;26.40;60.30
2539;DHT22;1280;49.760;9.664;2022-07-12T06:31:57;26.20;60.20
2539;DHT22;1280;49.760;9.664;2022-07-12T06:34:26;25.80;60.20
2539;DHT22;1280;49.760;9.664;2022-07-12T06:36:54;25.40;60.40
2539;DHT22;1280;49.760;9.664;2022-07-12T06:39:22;24.90;60.60
2539;DHT22;1280;49.760;9.664;2022-07-12T06:41:50;24.50;61.10
2539;DHT22;1280;49.760;9.664;2022-07-12T06:44:18;24.10;61.60
2539;DHT22;1280;49.760;9.664;2022-07-12T06:46:46;23.60;62.10
2539;DHT22;1280;49.760;9.664;2022-07-12T06:49:15;23.30;62.60
2539;DHT22;1280;49.760;9.664;2022-07-12T06:51:44;22.90;63.10
2539;DHT22;1280;49.760;9.664;2022-07-12T06:54:12;22.60;63.60
2539;DHT22;1280;49.760;9.664;2022-07-12T06:56:40;22.40;64.20
2539;DHT22;1280;49.760;9.664;2022-07-12T06:59:08;22.20;64.50
2539;DHT22;1280;49.760;9.664;2022-07-12T07:01:41;22.10;64.90
2539;DHT22;1280;49.760;9.664;2022-07-12T07:04:09;22.00;65.30
2539;DHT22;1280;49.760;9.664;2022-07-12T07:06:37;21.80;65.40
2539;DHT22;1280;49.760;9.664;2022-07-12T07:09:07;21.70;66.10
2539;DHT22;1280;49.760;9.664;2022-07-12T07:11:35;21.50;66.20
2539;DHT22;1280;49.760;9.664;2022-07-12T07:14:03;21.40;66.80
2539;DHT22;1280;49.760;9.664;2022-07-12T07:16:31;21.30;66.90
2539;DHT22;1280;49.760;9.664;2022-07-12T07:19:00;21.20;67.30
2539;DHT22;1280;49.760;9.664;2022-07-12T07:21:29;21.10;67.50
2539;DHT22;1280;49.760;9.664;2022-07-12T07:23:57;21.10;67.80
2539;DHT22;1280;49.760;9.664;2022-07-12T07:26:26;21.10;68.00
2539;DHT22;1280;49.760;9.664;2022-07-12T07:28:54;21.20;68.40
2539;DHT22;1280;49.760;9.664;2022-07-12T07:31:40;21.10;68.30
2539;DHT22;1280;49.760;9.664;2022-07-12T07:34:09;21.20;68.50
2539;DHT22;1280;49.760;9.664;2022-07-12T07:36:37;21.20;68.60
2539;DHT22;1280;49.760;9.664;2022-07-12T07:39:05;21.20;68.70
2539;DHT22;1280;49.760;9.664;2022-07-12T07:41:34;21.30;68.80
2539;DHT22;1280;49.760;9.664;2022-07-12T07:44:02;21.30;68.80
2539;DHT22;1280;49.760;9.664;2022-07-12T07:46:30;21.40;68.90
2539;DHT22;1280;49.760;9.664;2022-07-12T07:48:58;21.50;68.80
2539;DHT22;1280;49.760;9.664;2022-07-12T07:51:26;21.50;68.80
2539;DHT22;1280;49.760;9.664;2022-07-12T07:53:54;21.50;68.70
2539;DHT22;1280;49.760;9.664;2022-07-12T07:56:22;21.40;68.60
2539;DHT22;1280;49.760;9.664;2022-07-12T07:58:51;21.40;68.70
2539;DHT22;1280;49.760;9.664;2022-07-12T08:01:20;21.40;68.80
2539;DHT22;1280;49.760;9.664;2022-07-12T08:04:09;21.30;68.80
2539;DHT22;1280;49.760;9.664;2022-07-12T08:06:37;21.30;68.80
2539;DHT22;1280;49.760;9.664;2022-07-12T08:09:05;21.30;68.90
2539;DHT22;1280;49.760;9.664;2022-07-12T08:11:39;21.30;68.90
2539;DHT22;1280;49.760;9.664;2022-07-12T08:14:09;21.30;68.90
2539;DHT22;1280;49.760;9.664;2022-07-12T08:16:37;21.40;69.00
2539;DHT22;1280;49.760;9.664;2022-07-12T08:19:05;21.40;69.00
2539;DHT22;1280;49.760;9.664;2022-07-12T08:21:34;21.50;68.90
2539;DHT22;1280;49.760;9.664;2022-07-12T08:24:02;21.50;68.80
2539;DHT22;1280;49.760;9.664;2022-07-12T08:26:31;21.50;68.80
2539;DHT22;1280;49.760;9.664;2022-07-12T08:28:59;21.60;68.80
2539;DHT22;1280;49.760;9.664;2022-07-12T08:31:28;21.60;68.70
2539;DHT22;1280;49.760;9.664;2022-07-12T08:33:56;21.50;68.70
2539;DHT22;1280;49.760;9.664;2022-07-12T08:36:24;21.60;68.60
2539;DHT22;1280;49.760;9.664;2022-07-12T08:38:59;21.60;68.50
2539;DHT22;1280;49.760;9.664;2022-07-12T08:41:27;21.60;68.30
2539;DHT22;1280;49.760;9.664;2022-07-12T08:43:56;21.60;68.20
2539;DHT22;1280;49.760;9.664;2022-07-12T08:46:24;21.60;68.20
2539;DHT22;1280;49.760;9.664;2022-07-12T08:48:53;21.60;68.20
2539;DHT22;1280;49.760;9.664;2022-07-12T08:51:21;21.70;68.20
2539;DHT22;1280;49.760;9.664;2022-07-12T08:54:04;21.80;68.10
2539;DHT22;1280;49.760;9.664;2022-07-12T08:56:34;21.80;67.90
2539;DHT22;1280;49.760;9.664;2022-07-12T08:59:10;21.90;67.80
2539;DHT22;1280;49.760;9.664;2022-07-12T09:01:46;22.00;67.60
2539;DHT22;1280;49.760;9.664;2022-07-12T09:04:19;22.00;67.10
2539;DHT22;1280;49.760;9.664;2022-07-12T09:06:47;22.10;67.00
2539;DHT22;1280;49.760;9.664;2022-07-12T09:09:26;22.10;66.60
2539;DHT22;1280;49.760;9.664;2022-07-12T09:11:55;22.20;66.50
2539;DHT22;1280;49.760;9.664;2022-07-12T09:14:23;22.20;66.20
2539;DHT22;1280;49.760;9.664;2022-07-12T09:17:00;22.10;66.40
2539;DHT22;1280;49.760;9.664;2022-07-12T09:19:29;22.10;66.40
2539;DHT22;1280;49.760;9.664;2022-07-12T09:21:58;22.10;66.40
2539;DHT22;1280;49.760;9.664;2022-07-12T09:24:27;22.10;66.40
2539;DHT22;1280;49.760;9.664;2022-07-12T09:26:57;22.00;66.40
2539;DHT22;1280;49.760;9.664;2022-07-12T09:29:27;22.00;66.40
2539;DHT22;1280;49.760;9.664;2022-07-12T09:31:55;22.00;66.30
2539;DHT22;1280;49.760;9.664;2022-07-12T09:34:42;22.00;66.20
2539;DHT22;1280;49.760;9.664;2022-07-12T09:37:27;21.90;66.20
2539;DHT22;1280;49.760;9.664;2022-07-12T09:39:55;22.00;66.10
2539;DHT22;1280;49.760;9.664;2022-07-12T09:42:23;22.00;66.10
2539;DHT22;1280;49.760;9.664;2022-07-12T09:44:55;22.00;66.10
2539;DHT22;1280;49.760;9.664;2022-07-12T09:47:25;22.10;66.00
2539;DHT22;1280;49.760;9.664;2022-07-12T09:49:54;22.10;65.90
2539;DHT22;1280;49.760;9.664;2022-07-12T09:52:23;22.20;65.80
2539;DHT22;1280;49.760;9.664;2022-07-12T09:54:54;22.20;65.80
2539;DHT22;1280;49.760;9.664;2022-07-12T09:57:26;22.30;65.50
2539;DHT22;1280;49.760;9.664;2022-07-12T09:59:56;22.40;65.20
2539;DHT22;1280;49.760;9.664;2022-07-12T10:02:25;22.50;64.80
2539;DHT22;1280;49.760;9.664;2022-07-12T10:04:55;22.50;64.50
2539;DHT22;1280;49.760;9.664;2022-07-12T10:07:24;22.60;64.10
2539;DHT22;1280;49.760;9.664;2022-07-12T10:09:53;22.70;63.80
2539;DHT22;1280;49.760;9.664;2022-07-12T10:12:22;22.70;63.50
2539;DHT22;1280;49.760;9.664;2022-07-12T10:14:55;22.80;63.50
2539;DHT22;1280;49.760;9.664;2022-07-12T10:17:25;22.80;63.20
2539;DHT22;1280;49.760;9.664;2022-07-12T10:20:16;22.90;63.00
2539;DHT22;1280;49.760;9.664;2022-07-12T10:22:45;22.90;62.70
2539;DHT22;1280;49.760;9.664;2022-07-12T10:25:32;22.90;62.50
2539;DHT22;1280;49.760;9.664;2022-07-12T10:28:02;23.00;62.40
2539;DHT22;1280;49.760;9.664;2022-07-12T10:30:30;23.00;62.20
2539;DHT22;1280;49.760;9.664;2022-07-12T10:33:15;23.00;61.90
2539;DHT22;1280;49.760;9.664;2022-07-12T10:36:00;23.10;61.90
2539;DHT22;1280;49.760;9.664;2022-07-12T10:38:28;23.20;61.90
2539;DHT22;1280;49.760;9.664;2022-07-12T10:40:56;23.20;61.90
2539;DHT22;1280;49.760;9.664;2022-07-12T10:43:26;23.20;61.90
2539;DHT22;1280;49.760;9.664;2022-07-12T10:46:21;23.20;61.70
2539;DHT22;1280;49.760;9.664;2022-07-12T10:48:59;23.20;61.50
2539;DHT22;1280;49.760;9.664;2022-07-12T10:52:17;23.20;61.50
2539;DHT22;1280;49.760;9.664;2022-07-12T10:55:16;23.30;61.40
2539;DHT22;1280;49.760;9.664;2022-07-12T10:57:46;23.30;61.40
2539;DHT22;1280;49.760;9.664;2022-07-12T11:00:18;23.40;61.30
2539;DHT22;1280;49.760;9.664;2022-07-12T11:02:46;23.40;61.20
2539;DHT22;1280;49.760;9.664;2022-07-12T11:05:14;23.50;61.20
2539;DHT22;1280;49.760;9.664;2022-07-12T11:07:44;23.50;61.00
2539;DHT22;1280;49.760;9.664;2022-07-12T11:10:12;23.60;60.90
2539;DHT22;1280;49.760;9.664;2022-07-12T11:12:41;23.60;60.90
2539;DHT22;1280;49.760;9.664;2022-07-12T11:15:09;23.60;60.60
2539;DHT22;1280;49.760;9.664;2022-07-12T11:17:39;23.60;60.50
2539;DHT22;1280;49.760;9.664;2022-07-12T11:20:09;23.60;60.40
2539;DHT22;1280;49.760;9.664;2022-07-12T11:22:38;23.60;60.50
2539;DHT22;1280;49.760;9.664;2022-07-12T11:25:11;23.60;60.50
2539;DHT22;1280;49.760;9.664;2022-07-12T11:27:39;23.70;60.20
2539;DHT22;1280;49.760;9.664;2022-07-12T11:30:08;23.70;60.20
2539;DHT22;1280;49.760;9.664;2022-07-12T11:32:39;23.80;60.20
2539;DHT22;1280;49.760;9.664;2022-07-12T11:35:20;23.80;60.10
2539;DHT22;1280;49.760;9.664;2022-07-12T11:37:50;23.80;59.90
2539;DHT22;1280;49.760;9.664;2022-07-12T11:40:28;23.80;59.60
2539;DHT22;1280;49.760;9.664;2022-07-12T11:42:57;23.90;59.60
2539;DHT22;1280;49.760;9.664;2022-07-12T11:45:26;23.90;59.60
2539;DHT22;1280;49.760;9.664;2022-07-12T11:47:57;24.00;59.30
2539;DHT22;1280;49.760;9.664;2022-07-12T11:50:25;24.00;59.50
2539;DHT22;1280;49.760;9.664;2022-07-12T11:53:00;24.10;59.40
2539;DHT22;1280;49.760;9.664;2022-07-12T11:55:30;24.20;59.30
2539;DHT22;1280;49.760;9.664;2022-07-12T11:58:03;24.20;59.10
2539;DHT22;1280;49.760;9.664;2022-07-12T12:00:32;24.30;58.80
2539;DHT22;1280;49.760;9.664;2022-07-12T12:03:00;24.30;58.80
2539;DHT22;1280;49.760;9.664;2022-07-12T12:05:28;24.40;58.60
2539;DHT22;1280;49.760;9.664;2022-07-12T12:07:56;24.40;58.50
2539;DHT22;1280;49.760;9.664;2022-07-12T12:10:25;24.40;58.30
2539;DHT22;1280;49.760;9.664;2022-07-12T12:12:55;24.40;58.30
2539;DHT22;1280;49.760;9.664;2022-07-12T12:15:25;24.50;58.20
2539;DHT22;1280;49.760;9.664;2022-07-12T12:17:55;24.60;58.30
2539;DHT22;1280;49.760;9.664;2022-07-12T12:20:25;24.70;58.20
2539;DHT22;1280;49.760;9.664;2022-07-12T12:22:54;24.70;58.00
2539;DHT22;1280;49.760;9.664;2022-07-12T12:25:25;24.70;57.90
2539;DHT22;1280;49.760;9.664;2022-07-12T12:27:56;24.70;57.90
2539;DHT22;1280;49.760;9.664;2022-07-12T12:30:49;24.70;57.60
2539;DHT22;1280;49.760;9.664;2022-07-12T12:33:34;24.80;57.60
2539;DHT22;1280;49.760;9.664;2022-07-12T12:36:27;24.80;57.50
2539;DHT22;1280;49.760;9.664;2022-07-12T12:38:57;24.80;57.40
2539;DHT22;1280;49.760;9.664;2022-07-12T12:41:27;24.90;57.40
2539;DHT22;1280;49.760;9.664;2022-07-12T12:44:02;24.90;57.30
2539;DHT22;1280;49.760;9.664;2022-07-12T12:46:43;24.90;57.00
2539;DHT22;1280;49.760;9.664;2022-07-12T12:49:12;25.00;56.40
2539;DHT22;1280;49.760;9.664;2022-07-12T12:51:54;25.00;56.90
2539;DHT22;1280;49.760;9.664;2022-07-12T12:54:33;25.10;56.80
2539;DHT22;1280;49.760;9.664;2022-07-12T12:57:01;25.10;56.80
2539;DHT22;1280;49.760;9.664;2022-07-12T12:59:31;25.20;56.60
2539;DHT22;1280;49.760;9.664;2022-07-12T13:01:59;25.20;56.40
2539;DHT22;1280;49.760;9.664;2022-07-12T13:04:28;25.20;56.30
2539;DHT22;1280;49.760;9.664;2022-07-12T13:06:57;25.20;56.30
2539;DHT22;1280;49.760;9.664;2022-07-12T13:15:53;25.30;56.20
2539;DHT22;1280;49.760;9.664;2022-07-12T13:18:22;25.40;56.30
2539;DHT22;1280;49.760;9.664;2022-07-12T13:20:50;25.50;56.00
2539;DHT22;1280;49.760;9.664;2022-07-12T13:23:18;25.50;55.10
2539;DHT22;1280;49.760;9.664;2022-07-12T13:25:46;25.60;55.80
2539;DHT22;1280;49.760;9.664;2022-07-12T13:28:20;25.70;55.60
2539;DHT22;1280;49.760;9.664;2022-07-12T13:30:48;25.70;55.20
2539;DHT22;1280;49.760;9.664;2022-07-12T13:33:17;25.70;55.00
2539;DHT22;1280;49.760;9.664;2022-07-12T13:35:45;25.80;54.80
2539;DHT22;1280;49.760;9.664;2022-07-12T13:38:13;25.90;54.60
2539;DHT22;1280;49.760;9.664;2022-07-12T13:40:41;25.90;54.40
2539;DHT22;1280;49.760;9.664;2022-07-12T13:43:09;25.90;54.20
2539;DHT22;1280;49.760;9.664;2022-07-12T13:45:37;25.90;54.10
2539;DHT22;1280;49.760;9.664;2022-07-12T13:48:25;25.90;54.10
2539;DHT22;1280;49.760;9.664;2022-07-12T13:54:02;25.90;54.20
2539;DHT22;1280;49.760;9.664;2022-07-12T13:56:30;25.90;54.50
2539;DHT22;1280;49.760;9.664;2022-07-12T13:59:01;26.00;54.50
2539;DHT22;1280;49.760;9.664;2022-07-12T14:01:30;26.00;54.40
2539;DHT22;1280;49.760;9.664;2022-07-12T14:03:59;26.10;54.40
2539;DHT22;1280;49.760;9.664;2022-07-12T14:06:28;26.10;54.30
2539;DHT22;1280;49.760;9.664;2022-07-12T14:08:57;26.10;54.10
2539;DHT22;1280;49.760;9.664;2022-07-12T14:11:25;26.20;54.10
2539;DHT22;1280;49.760;9.664;2022-07-12T14:13:53;26.20;54.20
2539;DHT22;1280;49.760;9.664;2022-07-12T14:16:22;26.20;54.30
2539;DHT22;1280;49.760;9.664;2022-07-12T14:18:50;26.30;54.40
2539;DHT22;1280;49.760;9.664;2022-07-12T14:21:20;26.40;54.20
2539;DHT22;1280;49.760;9.664;2022-07-12T14:23:48;26.40;54.20
2539;DHT22;1280;49.760;9.664;2022-07-12T14:26:16;26.50;54.20
2539;DHT22;1280;49.760;9.664;2022-07-12T14:36:20;26.60;53.70
2539;DHT22;1280;49.760;9.664;2022-07-12T14:38:49;26.60;53.60
2539;DHT22;1280;49.760;9.664;2022-07-12T14:41:19;26.60;53.80
2539;DHT22;1280;49.760;9.664;2022-07-12T14:43:47;26.80;53.80
2539;DHT22;1280;49.760;9.664;2022-07-12T14:46:16;26.90;53.70
2539;DHT22;1280;49.760;9.664;2022-07-12T14:48:44;27.00;53.60
2539;DHT22;1280;49.760;9.664;2022-07-12T14:51:12;27.20;53.40
2539;DHT22;1280;49.760;9.664;2022-07-12T14:53:42;27.30;53.10
2539;DHT22;1280;49.760;9.664;2022-07-12T14:56:10;27.30;52.70
2539;DHT22;1280;49.760;9.664;2022-07-12T14:58:38;27.40;52.50
2539;DHT22;1280;49.760;9.664;2022-07-12T15:01:06;27.40;52.40
2539;DHT22;1280;49.760;9.664;2022-07-12T15:03:33;27.50;52.20
2539;DHT22;1280;49.760;9.664;2022-07-12T15:06:01;27.50;52.20
2539;DHT22;1280;49.760;9.664;2022-07-12T15:08:30;27.50;52.20
2539;DHT22;1280;49.760;9.664;2022-07-12T15:11:00;27.50;52.30
2539;DHT22;1280;49.760;9.664;2022-07-12T15:13:29;27.60;52.10
2539;DHT22;1280;49.760;9.664;2022-07-12T15:15:57;27.60;52.20
2539;DHT22;1280;49.760;9.664;2022-07-12T15:18:26;27.60;52.10
2539;DHT22;1280;49.760;9.664;2022-07-12T15:20:54;27.70;52.00
2539;DHT22;1280;49.760;9.664;2022-07-12T15:23:22;27.70;52.00
2539;DHT22;1280;49.760;9.664;2022-07-12T15:25:52;27.70;51.90
2539;DHT22;1280;49.760;9.664;2022-07-12T15:28:22;27.80;51.90
2539;DHT22;1280;49.760;9.664;2022-07-12T15:30:52;27.70;51.90
2539;DHT22;1280;49.760;9.664;2022-07-12T15:33:21;27.80;51.80
2539;DHT22;1280;49.760;9.664;2022-07-12T15:35:50;27.80;51.60
2539;DHT22;1280;49.760;9.664;2022-07-12T15:38:19;27.70;51.60
2539;DHT22;1280;49.760;9.664;2022-07-12T15:40:46;27.70;51.70
2539;DHT22;1280;49.760;9.664;2022-07-12T15:43:14;27.80;51.50
2539;DHT22;1280;49.760;9.664;2022-07-12T15:45:44;27.80;51.10
2539;DHT22;1280;49.760;9.664;2022-07-12T15:48:12;27.80;50.90
2539;DHT22;1280;49.760;9.664;2022-07-12T15:50:40;27.80;51.10
2539;DHT22;1280;49.760;9.664;2022-07-12T15:53:08;27.90;51.10
2539;DHT22;1280;49.760;9.664;2022-07-12T15:55:56;27.90;51.00
2539;DHT22;1280;49.760;9.664;2022-07-12T15:58:25;27.90;51.00
2539;DHT22;1280;49.760;9.664;2022-07-12T16:00:55;27.90;50.90
2539;DHT22;1280;49.760;9.664;2022-07-12T16:03:24;27.90;51.00
2539;DHT22;1280;49.760;9.664;2022-07-12T16:05:54;28.00;51.00
2539;DHT22;1280;49.760;9.664;2022-07-12T16:08:22;28.00;51.00
2539;DHT22;1280;49.760;9.664;2022-07-12T16:10:56;28.10;51.00
2539;DHT22;1280;49.760;9.664;2022-07-12T16:13:24;28.20;50.90
2539;DHT22;1280;49.760;9.664;2022-07-12T16:15:55;28.20;50.90
2539;DHT22;1280;49.760;9.664;2022-07-12T16:18:23;28.20;50.90
2539;DHT22;1280;49.760;9.664;2022-07-12T16:20:51;28.30;50.70
2539;DHT22;1280;49.760;9.664;2022-07-12T16:23:19;28.30;50.60
2539;DHT22;1280;49.760;9.664;2022-07-12T16:25:47;28.30;50.50
2539;DHT22;1280;49.760;9.664;2022-07-12T16:28:15;28.30;50.50
2539;DHT22;1280;49.760;9.664;2022-07-12T16:30:43;28.30;50.40
2539;DHT22;1280;49.760;9.664;2022-07-12T16:33:13;28.40;50.40
2539;DHT22;1280;49.760;9.664;2022-07-12T16:35:41;28.40;50.10